Ferrieres, Belgium
Current Conditions -  °F | °C
As of 9:50 AM on Saturday 25 Oct 2014 (Local Time) from EBLG Reporting Station
Broken Clouds Broken Clouds  
Wind Chill: 52°   Ceiling: 500
Heat Index: 52°   Visibility: 4mi
Dew Point: 50°   Wind: 7mph
Humidity: 94%   Direction: 190°S
Pressure: 30.09"   Gusts: NA
Location:  50.4°N, 5.61°E
Report Text: EBLG 250750Z 19006KT 6000 SCT004 BKN005 11/10 Q1019 TEMPO 4000 BR BKN003
Loading
Personal Weather Stations






























Interactive Weather Map
Tropical Storm Tracking
New forecast layout! Learn more

10-Day Weather Forecast

Advertisements
Track Severe Weather on mobile